sensor_id;sensor_type;location;lat;lon;timestamp;P1;durP1;ratioP1;P2;durP2;ratioP2
41057;SDS011;66768;48.884;2.258;2023-07-13T00:00:37;1.83;;;1.83;;
41057;SDS011;66768;48.884;2.258;2023-07-13T00:03:04;1.55;;;1.55;;
41057;SDS011;66768;48.884;2.258;2023-07-13T00:05:33;1.73;;;1.73;;
41057;SDS011;66768;48.884;2.258;2023-07-13T00:08:00;1.75;;;1.75;;
41057;SDS011;66768;48.884;2.258;2023-07-13T00:10:26;1.75;;;1.75;;
41057;SDS011;66768;48.884;2.258;2023-07-13T00:12:53;1.70;;;1.70;;
41057;SDS011;66768;48.884;2.258;2023-07-13T00:15:22;1.95;;;1.95;;
41057;SDS011;66768;48.884;2.258;2023-07-13T00:17:53;1.80;;;1.80;;
41057;SDS011;66768;48.884;2.258;2023-07-13T00:20:21;1.75;;;1.75;;
41057;SDS011;66768;48.884;2.258;2023-07-13T00:22:51;1.75;;;1.75;;
41057;SDS011;66768;48.884;2.258;2023-07-13T00:25:19;1.70;;;1.70;;
41057;SDS011;66768;48.884;2.258;2023-07-13T00:27:46;1.70;;;1.70;;
41057;SDS011;66768;48.884;2.258;2023-07-13T00:30:14;1.73;;;1.73;;
41057;SDS011;66768;48.884;2.258;2023-07-13T00:32:42;1.58;;;1.58;;
41057;SDS011;66768;48.884;2.258;2023-07-13T00:35:09;1.77;;;1.77;;
41057;SDS011;66768;48.884;2.258;2023-07-13T00:37:36;1.70;;;1.70;;
41057;SDS011;66768;48.884;2.258;2023-07-13T00:40:05;1.75;;;1.75;;
41057;SDS011;66768;48.884;2.258;2023-07-13T00:42:33;1.67;;;1.67;;
41057;SDS011;66768;48.884;2.258;2023-07-13T00:45:00;1.70;;;1.70;;
41057;SDS011;66768;48.884;2.258;2023-07-13T00:47:29;1.65;;;1.65;;
41057;SDS011;66768;48.884;2.258;2023-07-13T00:49:55;1.60;;;1.60;;
41057;SDS011;66768;48.884;2.258;2023-07-13T00:52:22;1.40;;;1.40;;
41057;SDS011;66768;48.884;2.258;2023-07-13T00:54:50;1.30;;;1.30;;
41057;SDS011;66768;48.884;2.258;2023-07-13T00:57:18;1.10;;;1.10;;
41057;SDS011;66768;48.884;2.258;2023-07-13T00:59:47;1.20;;;1.20;;
41057;SDS011;66768;48.884;2.258;2023-07-13T01:02:18;1.10;;;1.10;;
41057;SDS011;66768;48.884;2.258;2023-07-13T01:04:46;1.08;;;1.08;;
41057;SDS011;66768;48.884;2.258;2023-07-13T01:07:13;1.10;;;1.10;;
41057;SDS011;66768;48.884;2.258;2023-07-13T01:09:40;0.98;;;0.98;;
41057;SDS011;66768;48.884;2.258;2023-07-13T01:12:08;0.88;;;0.88;;
41057;SDS011;66768;48.884;2.258;2023-07-13T01:14:36;0.73;;;0.73;;
41057;SDS011;66768;48.884;2.258;2023-07-13T01:17:04;0.80;;;0.80;;
41057;SDS011;66768;48.884;2.258;2023-07-13T01:19:32;0.70;;;0.70;;
41057;SDS011;66768;48.884;2.258;2023-07-13T01:22:04;0.70;;;0.70;;
41057;SDS011;66768;48.884;2.258;2023-07-13T01:24:33;0.70;;;0.70;;
41057;SDS011;66768;48.884;2.258;2023-07-13T01:27:01;0.60;;;0.60;;
41057;SDS011;66768;48.884;2.258;2023-07-13T01:29:29;0.60;;;0.60;;
41057;SDS011;66768;48.884;2.258;2023-07-13T01:31:57;0.60;;;0.60;;
41057;SDS011;66768;48.884;2.258;2023-07-13T01:34:25;0.70;;;0.70;;
41057;SDS011;66768;48.884;2.258;2023-07-13T01:36:52;0.65;;;0.65;;
41057;SDS011;66768;48.884;2.258;2023-07-13T01:39:21;0.68;;;0.68;;
41057;SDS011;66768;48.884;2.258;2023-07-13T01:41:48;0.70;;;0.70;;
41057;SDS011;66768;48.884;2.258;2023-07-13T01:44:15;0.73;;;0.73;;
41057;SDS011;66768;48.884;2.258;2023-07-13T01:46:42;0.60;;;0.60;;
41057;SDS011;66768;48.884;2.258;2023-07-13T01:49:09;0.70;;;0.70;;
41057;SDS011;66768;48.884;2.258;2023-07-13T01:51:36;0.65;;;0.65;;
41057;SDS011;66768;48.884;2.258;2023-07-13T01:54:03;0.70;;;0.70;;
41057;SDS011;66768;48.884;2.258;2023-07-13T01:56:31;0.68;;;0.68;;
41057;SDS011;66768;48.884;2.258;2023-07-13T01:58:58;0.73;;;0.73;;
41057;SDS011;66768;48.884;2.258;2023-07-13T02:01:25;0.70;;;0.70;;
41057;SDS011;66768;48.884;2.258;2023-07-13T02:03:52;0.70;;;0.70;;
41057;SDS011;66768;48.884;2.258;2023-07-13T02:06:18;0.70;;;0.70;;
41057;SDS011;66768;48.884;2.258;2023-07-13T02:08:45;0.63;;;0.63;;
41057;SDS011;66768;48.884;2.258;2023-07-13T02:11:12;0.60;;;0.60;;
41057;SDS011;66768;48.884;2.258;2023-07-13T02:13:41;0.63;;;0.63;;
41057;SDS011;66768;48.884;2.258;2023-07-13T02:16:07;0.70;;;0.70;;
41057;SDS011;66768;48.884;2.258;2023-07-13T02:18:34;0.75;;;0.75;;
41057;SDS011;66768;48.884;2.258;2023-07-13T02:21:01;0.88;;;0.88;;
41057;SDS011;66768;48.884;2.258;2023-07-13T02:23:28;0.90;;;0.90;;
41057;SDS011;66768;48.884;2.258;2023-07-13T02:25:55;0.90;;;0.90;;
41057;SDS011;66768;48.884;2.258;2023-07-13T02:28:22;0.95;;;0.95;;
41057;SDS011;66768;48.884;2.258;2023-07-13T02:30:51;0.80;;;0.80;;
41057;SDS011;66768;48.884;2.258;2023-07-13T02:33:18;0.80;;;0.80;;
41057;SDS011;66768;48.884;2.258;2023-07-13T02:35:44;0.70;;;0.70;;
41057;SDS011;66768;48.884;2.258;2023-07-13T02:38:11;0.80;;;0.80;;
41057;SDS011;66768;48.884;2.258;2023-07-13T02:40:38;0.70;;;0.70;;
41057;SDS011;66768;48.884;2.258;2023-07-13T02:43:05;0.70;;;0.70;;
41057;SDS011;66768;48.884;2.258;2023-07-13T02:45:32;0.70;;;0.70;;
41057;SDS011;66768;48.884;2.258;2023-07-13T02:48:00;0.70;;;0.70;;
41057;SDS011;66768;48.884;2.258;2023-07-13T02:50:27;0.60;;;0.60;;
41057;SDS011;66768;48.884;2.258;2023-07-13T02:52:54;0.60;;;0.60;;
41057;SDS011;66768;48.884;2.258;2023-07-13T02:55:21;0.60;;;0.60;;
41057;SDS011;66768;48.884;2.258;2023-07-13T02:57:48;0.70;;;0.70;;
41057;SDS011;66768;48.884;2.258;2023-07-13T03:00:15;0.70;;;0.70;;
41057;SDS011;66768;48.884;2.258;2023-07-13T03:02:42;0.60;;;0.60;;
41057;SDS011;66768;48.884;2.258;2023-07-13T03:05:11;0.70;;;0.70;;
41057;SDS011;66768;48.884;2.258;2023-07-13T03:07:37;0.70;;;0.70;;
41057;SDS011;66768;48.884;2.258;2023-07-13T03:10:05;0.60;;;0.60;;
41057;SDS011;66768;48.884;2.258;2023-07-13T03:12:33;0.60;;;0.60;;
41057;SDS011;66768;48.884;2.258;2023-07-13T03:15:00;0.60;;;0.60;;
41057;SDS011;66768;48.884;2.258;2023-07-13T03:17:27;0.60;;;0.60;;
41057;SDS011;66768;48.884;2.258;2023-07-13T03:19:54;0.60;;;0.60;;
41057;SDS011;66768;48.884;2.258;2023-07-13T03:22:23;0.50;;;0.50;;
41057;SDS011;66768;48.884;2.258;2023-07-13T03:24:50;0.60;;;0.60;;
41057;SDS011;66768;48.884;2.258;2023-07-13T03:27:17;0.50;;;0.50;;
41057;SDS011;66768;48.884;2.258;2023-07-13T03:29:44;0.60;;;0.60;;
41057;SDS011;66768;48.884;2.258;2023-07-13T03:32:11;0.50;;;0.50;;
41057;SDS011;66768;48.884;2.258;2023-07-13T03:34:38;0.50;;;0.50;;
41057;SDS011;66768;48.884;2.258;2023-07-13T03:37:05;0.57;;;0.57;;
41057;SDS011;66768;48.884;2.258;2023-07-13T03:39:33;0.60;;;0.60;;
41057;SDS011;66768;48.884;2.258;2023-07-13T03:42:00;0.50;;;0.50;;
41057;SDS011;66768;48.884;2.258;2023-07-13T03:44:26;0.60;;;0.60;;
41057;SDS011;66768;48.884;2.258;2023-07-13T03:46:53;0.55;;;0.55;;
41057;SDS011;66768;48.884;2.258;2023-07-13T03:49:20;0.52;;;0.52;;
41057;SDS011;66768;48.884;2.258;2023-07-13T03:51:47;0.50;;;0.50;;
41057;SDS011;66768;48.884;2.258;2023-07-13T03:54:14;0.60;;;0.60;;
41057;SDS011;66768;48.884;2.258;2023-07-13T03:56:42;0.60;;;0.60;;
41057;SDS011;66768;48.884;2.258;2023-07-13T03:59:09;0.60;;;0.60;;
41057;SDS011;66768;48.884;2.258;2023-07-13T04:01:36;0.60;;;0.60;;
41057;SDS011;66768;48.884;2.258;2023-07-13T04:04:03;0.60;;;0.60;;
41057;SDS011;66768;48.884;2.258;2023-07-13T04:06:30;0.60;;;0.60;;
41057;SDS011;66768;48.884;2.258;2023-07-13T04:09:00;0.60;;;0.60;;
41057;SDS011;66768;48.884;2.258;2023-07-13T04:11:30;0.60;;;0.60;;
41057;SDS011;66768;48.884;2.258;2023-07-13T04:13:59;0.60;;;0.60;;
41057;SDS011;66768;48.884;2.258;2023-07-13T04:16:27;0.60;;;0.60;;
41057;SDS011;66768;48.884;2.258;2023-07-13T04:18:54;0.60;;;0.60;;
41057;SDS011;66768;48.884;2.258;2023-07-13T04:21:24;0.60;;;0.60;;
41057;SDS011;66768;48.884;2.258;2023-07-13T04:23:52;0.60;;;0.60;;
41057;SDS011;66768;48.884;2.258;2023-07-13T04:26:19;0.60;;;0.60;;
41057;SDS011;66768;48.884;2.258;2023-07-13T04:28:47;0.70;;;0.70;;
41057;SDS011;66768;48.884;2.258;2023-07-13T04:31:16;0.77;;;0.77;;
41057;SDS011;66768;48.884;2.258;2023-07-13T04:33:43;0.70;;;0.70;;
41057;SDS011;66768;48.884;2.258;2023-07-13T04:36:10;0.70;;;0.70;;
41057;SDS011;66768;48.884;2.258;2023-07-13T04:38:37;0.70;;;0.70;;
41057;SDS011;66768;48.884;2.258;2023-07-13T04:41:05;0.80;;;0.80;;
41057;SDS011;66768;48.884;2.258;2023-07-13T04:43:33;0.70;;;0.70;;
41057;SDS011;66768;48.884;2.258;2023-07-13T04:46:03;0.70;;;0.70;;
41057;SDS011;66768;48.884;2.258;2023-07-13T04:48:32;0.70;;;0.70;;
41057;SDS011;66768;48.884;2.258;2023-07-13T04:50:59;0.60;;;0.60;;
41057;SDS011;66768;48.884;2.258;2023-07-13T04:53:27;0.60;;;0.60;;
41057;SDS011;66768;48.884;2.258;2023-07-13T04:55:54;0.60;;;0.60;;
41057;SDS011;66768;48.884;2.258;2023-07-13T04:58:22;0.50;;;0.50;;
41057;SDS011;66768;48.884;2.258;2023-07-13T05:00:49;0.50;;;0.50;;
41057;SDS011;66768;48.884;2.258;2023-07-13T05:03:16;0.50;;;0.50;;
41057;SDS011;66768;48.884;2.258;2023-07-13T05:05:53;0.50;;;0.50;;
41057;SDS011;66768;48.884;2.258;2023-07-13T05:08:21;0.50;;;0.50;;
41057;SDS011;66768;48.884;2.258;2023-07-13T05:10:47;0.60;;;0.60;;
41057;SDS011;66768;48.884;2.258;2023-07-13T05:13:14;0.43;;;0.43;;
41057;SDS011;66768;48.884;2.258;2023-07-13T05:15:41;0.60;;;0.60;;
41057;SDS011;66768;48.884;2.258;2023-07-13T05:18:08;0.50;;;0.50;;
41057;SDS011;66768;48.884;2.258;2023-07-13T05:20:35;0.50;;;0.50;;
41057;SDS011;66768;48.884;2.258;2023-07-13T05:23:03;0.50;;;0.50;;
41057;SDS011;66768;48.884;2.258;2023-07-13T05:25:30;0.60;;;0.60;;
41057;SDS011;66768;48.884;2.258;2023-07-13T05:27:57;0.50;;;0.50;;
41057;SDS011;66768;48.884;2.258;2023-07-13T05:30:24;0.52;;;0.52;;
41057;SDS011;66768;48.884;2.258;2023-07-13T05:32:51;0.50;;;0.50;;
41057;SDS011;66768;48.884;2.258;2023-07-13T05:35:18;0.50;;;0.50;;
41057;SDS011;66768;48.884;2.258;2023-07-13T05:37:45;0.50;;;0.50;;
41057;SDS011;66768;48.884;2.258;2023-07-13T05:40:13;0.50;;;0.50;;
41057;SDS011;66768;48.884;2.258;2023-07-13T05:42:40;0.50;;;0.50;;
41057;SDS011;66768;48.884;2.258;2023-07-13T05:45:07;0.50;;;0.50;;
41057;SDS011;66768;48.884;2.258;2023-07-13T05:47:35;0.50;;;0.50;;
41057;SDS011;66768;48.884;2.258;2023-07-13T05:50:02;0.40;;;0.40;;
41057;SDS011;66768;48.884;2.258;2023-07-13T05:52:29;0.50;;;0.50;;
41057;SDS011;66768;48.884;2.258;2023-07-13T05:54:56;0.50;;;0.50;;
41057;SDS011;66768;48.884;2.258;2023-07-13T05:57:24;0.50;;;0.50;;
41057;SDS011;66768;48.884;2.258;2023-07-13T05:59:51;0.50;;;0.50;;
41057;SDS011;66768;48.884;2.258;2023-07-13T06:02:18;0.40;;;0.40;;
41057;SDS011;66768;48.884;2.258;2023-07-13T06:04:45;0.40;;;0.40;;
41057;SDS011;66768;48.884;2.258;2023-07-13T06:07:12;0.40;;;0.40;;
41057;SDS011;66768;48.884;2.258;2023-07-13T06:09:39;0.40;;;0.40;;
41057;SDS011;66768;48.884;2.258;2023-07-13T06:12:06;0.40;;;0.40;;
41057;SDS011;66768;48.884;2.258;2023-07-13T06:14:35;0.50;;;0.50;;
41057;SDS011;66768;48.884;2.258;2023-07-13T06:17:01;0.40;;;0.40;;
41057;SDS011;66768;48.884;2.258;2023-07-13T06:19:29;0.40;;;0.40;;
41057;SDS011;66768;48.884;2.258;2023-07-13T06:21:56;0.50;;;0.50;;
41057;SDS011;66768;48.884;2.258;2023-07-13T06:24:23;0.40;;;0.40;;
41057;SDS011;66768;48.884;2.258;2023-07-13T06:26:50;0.40;;;0.40;;
41057;SDS011;66768;48.884;2.258;2023-07-13T06:29:17;0.50;;;0.50;;
41057;SDS011;66768;48.884;2.258;2023-07-13T06:31:45;0.47;;;0.47;;
41057;SDS011;66768;48.884;2.258;2023-07-13T06:34:12;0.50;;;0.50;;
41057;SDS011;66768;48.884;2.258;2023-07-13T06:36:39;0.50;;;0.50;;
41057;SDS011;66768;48.884;2.258;2023-07-13T06:39:06;0.52;;;0.52;;
41057;SDS011;66768;48.884;2.258;2023-07-13T06:41:33;0.50;;;0.50;;
41057;SDS011;66768;48.884;2.258;2023-07-13T06:44:00;0.40;;;0.40;;
41057;SDS011;66768;48.884;2.258;2023-07-13T06:46:28;0.50;;;0.50;;
41057;SDS011;66768;48.884;2.258;2023-07-13T06:48:57;0.40;;;0.40;;
41057;SDS011;66768;48.884;2.258;2023-07-13T06:51:24;0.40;;;0.40;;
41057;SDS011;66768;48.884;2.258;2023-07-13T06:53:51;0.40;;;0.40;;
41057;SDS011;66768;48.884;2.258;2023-07-13T06:56:19;0.40;;;0.40;;
41057;SDS011;66768;48.884;2.258;2023-07-13T06:58:46;0.40;;;0.40;;
41057;SDS011;66768;48.884;2.258;2023-07-13T07:01:13;0.40;;;0.40;;
41057;SDS011;66768;48.884;2.258;2023-07-13T07:03:40;0.40;;;0.40;;
41057;SDS011;66768;48.884;2.258;2023-07-13T07:06:11;0.40;;;0.40;;
41057;SDS011;66768;48.884;2.258;2023-07-13T07:08:40;0.40;;;0.40;;
41057;SDS011;66768;48.884;2.258;2023-07-13T07:11:08;0.40;;;0.40;;
41057;SDS011;66768;48.884;2.258;2023-07-13T07:13:37;0.40;;;0.40;;
41057;SDS011;66768;48.884;2.258;2023-07-13T07:16:04;0.40;;;0.40;;
41057;SDS011;66768;48.884;2.258;2023-07-13T07:18:31;0.40;;;0.40;;
41057;SDS011;66768;48.884;2.258;2023-07-13T07:20:58;0.40;;;0.40;;
41057;SDS011;66768;48.884;2.258;2023-07-13T07:23:27;0.40;;;0.40;;
41057;SDS011;66768;48.884;2.258;2023-07-13T07:25:54;0.30;;;0.30;;
41057;SDS011;66768;48.884;2.258;2023-07-13T07:28:20;0.40;;;0.40;;
41057;SDS011;66768;48.884;2.258;2023-07-13T07:30:47;0.40;;;0.40;;
41057;SDS011;66768;48.884;2.258;2023-07-13T07:33:15;0.40;;;0.40;;
41057;SDS011;66768;48.884;2.258;2023-07-13T07:35:42;0.40;;;0.40;;
41057;SDS011;66768;48.884;2.258;2023-07-13T07:38:09;0.50;;;0.50;;
41057;SDS011;66768;48.884;2.258;2023-07-13T07:40:38;0.40;;;0.40;;
41057;SDS011;66768;48.884;2.258;2023-07-13T07:43:05;0.40;;;0.40;;
41057;SDS011;66768;48.884;2.258;2023-07-13T07:45:32;0.45;;;0.45;;
41057;SDS011;66768;48.884;2.258;2023-07-13T07:47:59;0.50;;;0.50;;
41057;SDS011;66768;48.884;2.258;2023-07-13T07:50:27;0.43;;;0.43;;
41057;SDS011;66768;48.884;2.258;2023-07-13T07:52:54;0.55;;;0.55;;
41057;SDS011;66768;48.884;2.258;2023-07-13T07:55:22;0.55;;;0.55;;
41057;SDS011;66768;48.884;2.258;2023-07-13T07:57:51;0.70;;;0.70;;
41057;SDS011;66768;48.884;2.258;2023-07-13T08:00:18;0.70;;;0.70;;
41057;SDS011;66768;48.884;2.258;2023-07-13T08:02:45;0.60;;;0.60;;
41057;SDS011;66768;48.884;2.258;2023-07-13T08:05:13;0.70;;;0.70;;
41057;SDS011;66768;48.884;2.258;2023-07-13T08:07:40;0.70;;;0.70;;
41057;SDS011;66768;48.884;2.258;2023-07-13T08:10:07;0.70;;;0.70;;
41057;SDS011;66768;48.884;2.258;2023-07-13T08:12:34;0.80;;;0.80;;
41057;SDS011;66768;48.884;2.258;2023-07-13T08:15:03;0.80;;;0.80;;
41057;SDS011;66768;48.884;2.258;2023-07-13T08:17:31;0.90;;;0.90;;
41057;SDS011;66768;48.884;2.258;2023-07-13T08:19:58;0.90;;;0.90;;
41057;SDS011;66768;48.884;2.258;2023-07-13T08:22:24;1.05;;;1.05;;
41057;SDS011;66768;48.884;2.258;2023-07-13T08:24:51;0.90;;;0.90;;
41057;SDS011;66768;48.884;2.258;2023-07-13T08:27:21;0.90;;;0.90;;
41057;SDS011;66768;48.884;2.258;2023-07-13T08:29:49;0.90;;;0.90;;
41057;SDS011;66768;48.884;2.258;2023-07-13T08:32:18;0.80;;;0.80;;
41057;SDS011;66768;48.884;2.258;2023-07-13T08:34:46;1.15;;;1.15;;
41057;SDS011;66768;48.884;2.258;2023-07-13T08:37:13;1.20;;;1.20;;
41057;SDS011;66768;48.884;2.258;2023-07-13T08:39:41;1.58;;;1.58;;
41057;SDS011;66768;48.884;2.258;2023-07-13T08:42:12;1.42;;;1.42;;
41057;SDS011;66768;48.884;2.258;2023-07-13T08:44:49;1.42;;;1.42;;
41057;SDS011;66768;48.884;2.258;2023-07-13T08:47:22;1.30;;;1.30;;
41057;SDS011;66768;48.884;2.258;2023-07-13T08:49:50;1.20;;;1.20;;
41057;SDS011;66768;48.884;2.258;2023-07-13T08:52:22;0.90;;;0.90;;
41057;SDS011;66768;48.884;2.258;2023-07-13T08:54:58;0.70;;;0.70;;
41057;SDS011;66768;48.884;2.258;2023-07-13T08:57:33;0.70;;;0.70;;
41057;SDS011;66768;48.884;2.258;2023-07-13T09:00:01;0.70;;;0.70;;
41057;SDS011;66768;48.884;2.258;2023-07-13T09:02:36;0.80;;;0.80;;
41057;SDS011;66768;48.884;2.258;2023-07-13T09:05:10;0.70;;;0.70;;
41057;SDS011;66768;48.884;2.258;2023-07-13T09:07:45;0.90;;;0.90;;
41057;SDS011;66768;48.884;2.258;2023-07-13T09:10:26;0.98;;;0.98;;
41057;SDS011;66768;48.884;2.258;2023-07-13T09:13:02;1.33;;;1.33;;
41057;SDS011;66768;48.884;2.258;2023-07-13T09:15:41;1.10;;;1.10;;
41057;SDS011;66768;48.884;2.258;2023-07-13T09:18:16;1.50;;;1.50;;
41057;SDS011;66768;48.884;2.258;2023-07-13T09:20:49;1.67;;;1.67;;
41057;SDS011;66768;48.884;2.258;2023-07-13T09:23:20;1.88;;;1.88;;
41057;SDS011;66768;48.884;2.258;2023-07-13T09:25:48;1.80;;;1.80;;
41057;SDS011;66768;48.884;2.258;2023-07-13T09:28:22;2.05;;;2.00;;
41057;SDS011;66768;48.884;2.258;2023-07-13T09:30:51;2.10;;;2.03;;
41057;SDS011;66768;48.884;2.258;2023-07-13T09:33:24;2.42;;;2.33;;
41057;SDS011;66768;48.884;2.258;2023-07-13T09:35:54;2.13;;;2.05;;
41057;SDS011;66768;48.884;2.258;2023-07-13T09:38:22;1.95;;;1.95;;
41057;SDS011;66768;48.884;2.258;2023-07-13T09:40:56;1.90;;;1.90;;
41057;SDS011;66768;48.884;2.258;2023-07-13T09:45:54;1.17;;;1.17;;
41057;SDS011;66768;48.884;2.258;2023-07-13T09:48:21;1.17;;;1.17;;
41057;SDS011;66768;48.884;2.258;2023-07-13T09:50:54;1.10;;;1.10;;
41057;SDS011;66768;48.884;2.258;2023-07-13T09:53:22;1.00;;;1.00;;
41057;SDS011;66768;48.884;2.258;2023-07-13T09:55:49;0.85;;;0.85;;
41057;SDS011;66768;48.884;2.258;2023-07-13T09:58:17;0.80;;;0.80;;
41057;SDS011;66768;48.884;2.258;2023-07-13T10:00:53;0.60;;;0.60;;
41057;SDS011;66768;48.884;2.258;2023-07-13T10:03:24;0.65;;;0.65;;
41057;SDS011;66768;48.884;2.258;2023-07-13T10:05:52;0.60;;;0.60;;
41057;SDS011;66768;48.884;2.258;2023-07-13T10:08:21;0.63;;;0.63;;
41057;SDS011;66768;48.884;2.258;2023-07-13T10:10:53;0.70;;;0.70;;
41057;SDS011;66768;48.884;2.258;2023-07-13T10:13:27;0.60;;;0.60;;
41057;SDS011;66768;48.884;2.258;2023-07-13T10:15:57;0.80;;;0.80;;
41057;SDS011;66768;48.884;2.258;2023-07-13T10:18:27;0.70;;;0.70;;
41057;SDS011;66768;48.884;2.258;2023-07-13T10:20:58;0.65;;;0.65;;
41057;SDS011;66768;48.884;2.258;2023-07-13T10:23:36;0.70;;;0.70;;
41057;SDS011;66768;48.884;2.258;2023-07-13T10:26:04;0.70;;;0.70;;
41057;SDS011;66768;48.884;2.258;2023-07-13T10:28:35;0.70;;;0.70;;
41057;SDS011;66768;48.884;2.258;2023-07-13T10:31:04;0.82;;;0.82;;
41057;SDS011;66768;48.884;2.258;2023-07-13T10:33:39;0.80;;;0.80;;
41057;SDS011;66768;48.884;2.258;2023-07-13T10:36:12;0.80;;;0.80;;
41057;SDS011;66768;48.884;2.258;2023-07-13T10:38:43;0.77;;;0.77;;
41057;SDS011;66768;48.884;2.258;2023-07-13T10:41:11;0.77;;;0.77;;
41057;SDS011;66768;48.884;2.258;2023-07-13T10:43:42;0.70;;;0.70;;
41057;SDS011;66768;48.884;2.258;2023-07-13T10:46:11;0.80;;;0.80;;
41057;SDS011;66768;48.884;2.258;2023-07-13T10:48:42;0.80;;;0.80;;
41057;SDS011;66768;48.884;2.258;2023-07-13T10:51:15;0.80;;;0.80;;
41057;SDS011;66768;48.884;2.258;2023-07-13T10:53:46;0.70;;;0.70;;
41057;SDS011;66768;48.884;2.258;2023-07-13T10:56:22;0.60;;;0.60;;
41057;SDS011;66768;48.884;2.258;2023-07-13T10:59:01;0.70;;;0.70;;
41057;SDS011;66768;48.884;2.258;2023-07-13T11:01:39;0.80;;;0.80;;
41057;SDS011;66768;48.884;2.258;2023-07-13T11:04:11;0.90;;;0.90;;
41057;SDS011;66768;48.884;2.258;2023-07-13T11:06:40;0.80;;;0.80;;
41057;SDS011;66768;48.884;2.258;2023-07-13T11:12:05;0.70;;;0.70;;
41057;SDS011;66768;48.884;2.258;2023-07-13T11:14:42;0.70;;;0.70;;
41057;SDS011;66768;48.884;2.258;2023-07-13T11:23:07;0.63;;;0.63;;
41057;SDS011;66768;48.884;2.258;2023-07-13T11:28:17;0.60;;;0.60;;
41057;SDS011;66768;48.884;2.258;2023-07-13T11:30:49;0.50;;;0.50;;
41057;SDS011;66768;48.884;2.258;2023-07-13T11:33:27;0.70;;;0.70;;
41057;SDS011;66768;48.884;2.258;2023-07-13T11:36:13;0.63;;;0.63;;
41057;SDS011;66768;48.884;2.258;2023-07-13T11:38:45;0.65;;;0.65;;
41057;SDS011;66768;48.884;2.258;2023-07-13T11:41:18;0.85;;;0.85;;
41057;SDS011;66768;48.884;2.258;2023-07-13T11:43:48;1.02;;;1.02;;
41057;SDS011;66768;48.884;2.258;2023-07-13T11:46:18;1.60;;;1.60;;
41057;SDS011;66768;48.884;2.258;2023-07-13T11:48:47;1.77;;;1.77;;
41057;SDS011;66768;48.884;2.258;2023-07-13T11:51:19;1.73;;;1.73;;
41057;SDS011;66768;48.884;2.258;2023-07-13T11:53:49;1.73;;;1.73;;
41057;SDS011;66768;48.884;2.258;2023-07-13T11:56:17;1.67;;;1.67;;
41057;SDS011;66768;48.884;2.258;2023-07-13T11:58:47;1.92;;;1.92;;
41057;SDS011;66768;48.884;2.258;2023-07-13T12:01:17;1.65;;;1.65;;
41057;SDS011;66768;48.884;2.258;2023-07-13T12:03:46;1.55;;;1.55;;
41057;SDS011;66768;48.884;2.258;2023-07-13T12:06:23;1.73;;;1.73;;
41057;SDS011;66768;48.884;2.258;2023-07-13T12:08:55;1.65;;;1.65;;
41057;SDS011;66768;48.884;2.258;2023-07-13T12:11:24;1.50;;;1.50;;
41057;SDS011;66768;48.884;2.258;2023-07-13T12:13:51;1.00;;;1.00;;
41057;SDS011;66768;48.884;2.258;2023-07-13T12:16:21;0.90;;;0.90;;
41057;SDS011;66768;48.884;2.258;2023-07-13T12:18:55;1.35;;;1.35;;
41057;SDS011;66768;48.884;2.258;2023-07-13T12:21:28;1.30;;;1.30;;
41057;SDS011;66768;48.884;2.258;2023-07-13T12:23:57;1.48;;;1.48;;
41057;SDS011;66768;48.884;2.258;2023-07-13T12:26:27;1.67;;;1.67;;
41057;SDS011;66768;48.884;2.258;2023-07-13T12:28:54;1.50;;;1.50;;
41057;SDS011;66768;48.884;2.258;2023-07-13T12:31:23;1.40;;;1.40;;
41057;SDS011;66768;48.884;2.258;2023-07-13T12:33:56;1.42;;;1.42;;
41057;SDS011;66768;48.884;2.258;2023-07-13T12:36:25;1.27;;;1.27;;
41057;SDS011;66768;48.884;2.258;2023-07-13T12:38:56;1.20;;;1.20;;
41057;SDS011;66768;48.884;2.258;2023-07-13T12:41:28;1.40;;;1.40;;
41057;SDS011;66768;48.884;2.258;2023-07-13T12:43:56;1.30;;;1.30;;
41057;SDS011;66768;48.884;2.258;2023-07-13T12:46:23;1.00;;;1.00;;
41057;SDS011;66768;48.884;2.258;2023-07-13T12:48:54;1.08;;;1.08;;
41057;SDS011;66768;48.884;2.258;2023-07-13T12:51:21;1.00;;;1.00;;
41057;SDS011;66768;48.884;2.258;2023-07-13T12:54:06;1.00;;;1.00;;
41057;SDS011;66768;48.884;2.258;2023-07-13T12:56:40;0.90;;;0.90;;
41057;SDS011;66768;48.884;2.258;2023-07-13T12:59:08;1.02;;;1.02;;
41057;SDS011;66768;48.884;2.258;2023-07-13T13:01:43;0.98;;;0.98;;
41057;SDS011;66768;48.884;2.258;2023-07-13T13:04:10;1.08;;;1.08;;
41057;SDS011;66768;48.884;2.258;2023-07-13T13:06:38;0.90;;;0.90;;
41057;SDS011;66768;48.884;2.258;2023-07-13T13:09:09;0.75;;;0.75;;
41057;SDS011;66768;48.884;2.258;2023-07-13T13:11:39;0.80;;;0.80;;
41057;SDS011;66768;48.884;2.258;2023-07-13T13:14:07;0.90;;;0.90;;
41057;SDS011;66768;48.884;2.258;2023-07-13T13:16:34;0.80;;;0.80;;
41057;SDS011;66768;48.884;2.258;2023-07-13T13:19:14;0.70;;;0.70;;
41057;SDS011;66768;48.884;2.258;2023-07-13T13:21:46;0.80;;;0.80;;
41057;SDS011;66768;48.884;2.258;2023-07-13T13:24:17;0.80;;;0.80;;
41057;SDS011;66768;48.884;2.258;2023-07-13T13:26:46;0.90;;;0.90;;
41057;SDS011;66768;48.884;2.258;2023-07-13T13:29:15;0.95;;;0.95;;
41057;SDS011;66768;48.884;2.258;2023-07-13T13:31:43;0.90;;;0.90;;
41057;SDS011;66768;48.884;2.258;2023-07-13T13:34:11;0.80;;;0.80;;
41057;SDS011;66768;48.884;2.258;2023-07-13T13:36:40;0.80;;;0.80;;
41057;SDS011;66768;48.884;2.258;2023-07-13T13:39:15;0.90;;;0.90;;
41057;SDS011;66768;48.884;2.258;2023-07-13T13:41:59;0.70;;;0.70;;
41057;SDS011;66768;48.884;2.258;2023-07-13T13:44:26;0.80;;;0.80;;
41057;SDS011;66768;48.884;2.258;2023-07-13T13:46:53;0.90;;;0.90;;
41057;SDS011;66768;48.884;2.258;2023-07-13T13:49:23;0.80;;;0.80;;
41057;SDS011;66768;48.884;2.258;2023-07-13T13:51:51;0.80;;;0.80;;
41057;SDS011;66768;48.884;2.258;2023-07-13T13:54:19;0.82;;;0.82;;
41057;SDS011;66768;48.884;2.258;2023-07-13T13:56:49;0.95;;;0.95;;
41057;SDS011;66768;48.884;2.258;2023-07-13T13:59:18;0.88;;;0.88;;
41057;SDS011;66768;48.884;2.258;2023-07-13T14:01:46;0.95;;;0.95;;
41057;SDS011;66768;48.884;2.258;2023-07-13T14:04:15;0.80;;;0.80;;
41057;SDS011;66768;48.884;2.258;2023-07-13T14:06:44;0.98;;;0.98;;
41057;SDS011;66768;48.884;2.258;2023-07-13T14:09:12;1.00;;;1.00;;
41057;SDS011;66768;48.884;2.258;2023-07-13T14:11:42;0.90;;;0.90;;
41057;SDS011;66768;48.884;2.258;2023-07-13T14:14:12;1.00;;;1.00;;
41057;SDS011;66768;48.884;2.258;2023-07-13T14:16:43;0.90;;;0.90;;
41057;SDS011;66768;48.884;2.258;2023-07-13T14:19:12;1.00;;;1.00;;
41057;SDS011;66768;48.884;2.258;2023-07-13T14:21:39;0.90;;;0.90;;
41057;SDS011;66768;48.884;2.258;2023-07-13T14:24:07;0.93;;;0.93;;
41057;SDS011;66768;48.884;2.258;2023-07-13T14:26:35;0.90;;;0.90;;
41057;SDS011;66768;48.884;2.258;2023-07-13T14:29:10;0.90;;;0.90;;
41057;SDS011;66768;48.884;2.258;2023-07-13T14:31:39;0.95;;;0.95;;
41057;SDS011;66768;48.884;2.258;2023-07-13T14:34:07;1.00;;;1.00;;
41057;SDS011;66768;48.884;2.258;2023-07-13T14:36:36;0.90;;;0.90;;
41057;SDS011;66768;48.884;2.258;2023-07-13T14:39:09;0.90;;;0.90;;
41057;SDS011;66768;48.884;2.258;2023-07-13T14:41:38;0.90;;;0.90;;
41057;SDS011;66768;48.884;2.258;2023-07-13T14:44:09;0.98;;;0.98;;
41057;SDS011;66768;48.884;2.258;2023-07-13T14:46:38;0.90;;;0.90;;
41057;SDS011;66768;48.884;2.258;2023-07-13T14:49:06;0.90;;;0.90;;
41057;SDS011;66768;48.884;2.258;2023-07-13T14:51:41;0.95;;;0.95;;
41057;SDS011;66768;48.884;2.258;2023-07-13T14:54:08;0.90;;;0.90;;
41057;SDS011;66768;48.884;2.258;2023-07-13T14:56:36;0.80;;;0.80;;
41057;SDS011;66768;48.884;2.258;2023-07-13T14:59:03;1.00;;;1.00;;
41057;SDS011;66768;48.884;2.258;2023-07-13T15:01:33;0.90;;;0.90;;
41057;SDS011;66768;48.884;2.258;2023-07-13T15:04:02;0.80;;;0.80;;
41057;SDS011;66768;48.884;2.258;2023-07-13T15:06:29;0.70;;;0.70;;
41057;SDS011;66768;48.884;2.258;2023-07-13T15:08:57;0.95;;;0.95;;
41057;SDS011;66768;48.884;2.258;2023-07-13T15:11:24;0.80;;;0.80;;